Celina, Texas
Current Conditions -  °F | °C
As of 6:53 PM on Saturday 25 Oct 2014 (Local Time) from KTKI Reporting Station
Clear Clear  
Wind Chill: 77°   Ceiling: Unl
Heat Index: 79°   Visibility: 10mi
Dew Point: 61°   Wind: 6mph
Humidity: 58%   Direction: 160°SSE
Pressure: 30.05"   Gusts: NA
Location:  33.32°N, 96.78°W
Report Text: KTKI 252353Z 16005KT 10SM CLR 25/16 A3005 RMK AO2 SLP175 T02500161 10306 20239 56005
Loading
Personal Weather Stations






























Interactive Weather Map
Tropical Storm Tracking
New forecast layout! Learn more

10-Day Weather Forecast

Advertisements
Track Severe Weather on mobile